Terminal Aerodrome Forecast
Issued by NWS

Home | Current Version | Previous Version | Text Only | Print | Product List | Glossary On
Versions: 1 2 3 4 5 6 7 8 9 10 11 12 13 14 15 16 17 18 19 20 21 22
000
FTUS43 KSGF 250200 AAA
TAFBBG
TAF AMD
KBBG 250229Z 2502/2524 VRB03KT P6SM SCT004 OVC050
      TEMPO 2503/2506 OVC004
     FM250600 20005KT 6SM BR SCT007 SCT030
      TEMPO 2508/2512 1SM BR SCT003
     FM251200 15004KT 4SM BR SCT003
      TEMPO 2512/2514 1SM BR OVC003
     FM251500 16010G18KT P6SM SCT025 BKN250=

USA.gov is the U.S. government's official web portal to all federal, state and local government web resources and services.